< Cyclone 199001 1990 Season Cyclone 199003 >
Cyclone 199002 (FELICITY)
General InformationTrack Information on Google MapsDetailed Wind InformationList of All Images || ResourceGoogle EarthGE AnimationAtom FeedGeoJSON
Detalied Best Track (Time Zone = UTC)
Year Month Day Hour Lat. Long. Pressure (hPa) Wind (kt) Class Image Chart
1989 12 13 00 -11.5 134.0 1001 12 2 Image --
1989 12 13 06 -12.0 134.0 997 19 2 Image --
1989 12 13 12 -12.8 134.2 1000 16 2 Image --
1989 12 13 18 -13.6 134.9 1001 16 2 Image --
1989 12 14 00 -14.3 135.4 1000 16 2 Image --
1989 12 14 06 -14.5 136.1 995 21 2 Image --
1989 12 14 12 -15.0 137.0 995 27 2 Image --
1989 12 14 18 -15.4 138.0 995 33 2 Image --
1989 12 15 00 -15.7 139.2 985 37 3 Image --
1989 12 15 06 -16.1 140.5 975 49 4 Image --
1989 12 15 12 -16.6 141.5 985 43 3 Image --
1989 12 15 18 -17.2 142.5 1000 29 2 Image --
1989 12 16 00 -17.4 144.0 1000 27 2 Image --
1989 12 16 06 -17.2 145.8 999 21 2 Image --
1989 12 16 18 -16.8 148.9 997 25 2 Image --
1989 12 17 00 -16.6 149.4 993 33 2 Image --
1989 12 17 06 -16.2 150.3 992 33 2 Image --
1989 12 17 12 -15.9 151.0 994 25 2 Image --
1989 12 17 18 -15.4 152.0 995 21 2 Image --
1989 12 18 00 -15.1 153.6 995 21 2 Image --
1989 12 18 06 -15.6 155.0 995 21 2 Image --
1989 12 18 12 -16.0 156.3 995 21 2 Image --
1989 12 18 18 -16.5 157.6 995 21 2 Image --
1989 12 19 00 -17.2 158.6 995 21 2 Image --
1989 12 19 06 -18.9 159.5 995 21 2 Image --
1989 12 19 12 -20.1 160.2 995 19 2 Image --
1989 12 19 18 -21.3 160.6 996 16 2 Image --
1989 12 20 00 -22.1 161.0 999 14 2 Image --
< Cyclone 199001 1990 Season Cyclone 199003 >

Help